Time;durP1;ratioP1;P1;durP2;ratioP2;P2;SDS_P1;SDS_P2;PMS_P1;PMS_P2;Temp;Humidity;BMP_temperature;BMP_pressure;BME280_temperature;BME280_humidity;BME280_pressure;Samples;Min_cycle;Max_cycle;Signal;HPM_P1;HPM_P2
2023/09/06 00:00:07;;;;;;;3.33;1.40;;;;;;;16.69;100.00;101704.34;5062306;28;20937;-70
2023/09/06 00:02:34;;;;;;;19.23;1.50;;;;;;;16.65;100.00;101700.63;5062361;28;20427;-70
2023/09/06 00:05:00;;;;;;;3.70;1.70;;;;;;;16.59;100.00;101702.66;5062221;28;20518;-70
2023/09/06 00:07:27;;;;;;;3.93;1.20;;;;;;;16.61;100.00;101702.38;5062515;28;20532;-70
2023/09/06 00:09:54;;;;;;;3.67;1.83;;;;;;;16.64;100.00;101696.25;5062863;28;20465;-69
2023/09/06 00:12:22;;;;;;;3.20;1.50;;;;;;;16.61;100.00;101696.91;5061774;28;20810;-69
2023/09/06 00:14:48;;;;;;;3.60;1.37;;;;;;;16.55;100.00;101695.41;5061435;28;20455;-69
2023/09/06 00:17:15;;;;;;;3.27;1.37;;;;;;;16.54;100.00;101696.53;5062626;28;20450;-70
2023/09/06 00:19:42;;;;;;;4.93;2.13;;;;;;;16.50;100.00;101692.81;5064644;28;20437;-69
2023/09/06 00:22:09;;;;;;;3.53;1.80;;;;;;;16.52;100.00;101688.66;5065272;28;20510;-69
2023/09/06 00:24:35;;;;;;;2.87;1.53;;;;;;;16.50;100.00;101690.06;5065178;28;20977;-69
2023/09/06 00:27:04;;;;;;;3.40;1.57;;;;;;;16.45;100.00;101701.97;5065036;28;20546;-69
2023/09/06 00:29:32;;;;;;;10.73;1.83;;;;;;;16.42;100.00;101702.56;5064775;28;20482;-69
2023/09/06 00:31:59;;;;;;;3.40;1.60;;;;;;;16.38;100.00;101702.41;5065814;28;20434;-69
2023/09/06 00:34:26;;;;;;;2.90;1.33;;;;;;;16.32;100.00;101703.66;5065358;28;20465;-69
2023/09/06 00:36:54;;;;;;;3.20;1.23;;;;;;;16.30;100.00;101703.16;5065196;28;20454;-69
2023/09/06 00:39:21;;;;;;;2.83;1.00;;;;;;;16.31;100.00;101699.31;5065409;28;20435;-69
2023/09/06 00:41:47;;;;;;;3.47;1.43;;;;;;;16.32;100.00;101697.38;5065500;28;21016;-69
2023/09/06 00:44:15;;;;;;;2.87;0.97;;;;;;;16.29;100.00;101700.72;5065893;28;20446;-69
2023/09/06 00:46:43;;;;;;;3.70;1.47;;;;;;;16.25;100.00;101702.50;5064698;28;20454;-69
2023/09/06 00:49:10;;;;;;;3.53;1.20;;;;;;;16.22;100.00;101694.91;5064789;28;20496;-69
2023/09/06 00:51:36;;;;;;;3.40;1.43;;;;;;;16.19;100.00;101696.31;5064197;28;20937;-69
2023/09/06 00:54:03;;;;;;;3.67;1.60;;;;;;;16.14;100.00;101700.00;5064428;28;20451;-69
2023/09/06 00:56:30;;;;;;;2.90;1.17;;;;;;;16.15;100.00;101703.53;5065263;28;20534;-69
2023/09/06 00:58:57;;;;;;;3.10;1.50;;;;;;;16.15;100.00;101700.78;5064724;28;20460;-69
2023/09/06 01:01:23;;;;;;;4.30;1.80;;;;;;;16.13;100.00;101697.56;5065222;28;20887;-69
2023/09/06 01:03:51;;;;;;;2.67;1.10;;;;;;;16.09;100.00;101693.84;5063361;28;20812;-69
2023/09/06 01:06:24;;;;;;;7.90;2.33;;;;;;;16.08;100.00;101697.72;5064523;28;21027;-69
2023/09/06 01:08:56;;;;;;;3.40;1.30;;;;;;;16.09;100.00;101699.31;5064244;28;20492;-69
2023/09/06 01:11:25;;;;;;;3.60;1.60;;;;;;;16.06;100.00;101697.19;5064573;28;20442;-69
2023/09/06 01:13:54;;;;;;;4.30;1.70;;;;;;;15.98;100.00;101696.03;5062540;28;20514;-69
2023/09/06 01:16:26;;;;;;;3.37;1.40;;;;;;;16.00;100.00;101701.97;5062419;28;20837;-69
2023/09/06 01:18:54;;;;;;;2.87;1.20;;;;;;;16.02;100.00;101705.19;5062745;28;20423;-69
2023/09/06 01:21:23;;;;;;;5.00;1.60;;;;;;;15.98;100.00;101706.13;5062156;28;20462;-69
2023/09/06 01:23:51;;;;;;;2.50;0.93;;;;;;;15.92;100.00;101701.91;5062293;28;20529;-69
2023/09/06 01:26:19;;;;;;;3.23;1.70;;;;;;;15.89;100.00;101704.16;5062167;28;20802;-69
2023/09/06 01:28:45;;;;;;;4.27;1.50;;;;;;;15.91;100.00;101711.25;5060774;28;20549;-69
2023/09/06 01:31:12;;;;;;;2.70;1.20;;;;;;;15.88;100.00;101708.00;5062153;28;20469;-69
2023/09/06 01:33:39;;;;;;;3.83;1.50;;;;;;;15.82;100.00;101709.25;5061573;28;20545;-69
2023/09/06 01:36:06;;;;;;;4.10;1.40;;;;;;;15.82;100.00;101702.97;5062412;28;20516;-69
2023/09/06 01:38:33;;;;;;;3.13;1.70;;;;;;;15.84;100.00;101704.25;5061454;28;20434;-69
2023/09/06 01:41:02;;;;;;;3.07;1.30;;;;;;;15.83;100.00;101694.44;5061664;28;20487;-69
2023/09/06 01:43:31;;;;;;;3.93;1.70;;;;;;;15.83;100.00;101693.66;5060297;28;20470;-69
2023/09/06 01:45:58;;;;;;;2.93;1.23;;;;;;;15.84;100.00;101698.78;5056585;28;20465;-68
2023/09/06 01:48:24;;;;;;;2.50;0.83;;;;;;;15.80;100.00;101694.25;5054349;28;20644;-70
2023/09/06 01:50:51;;;;;;;3.00;1.43;;;;;;;15.78;100.00;101691.84;5056265;28;20482;-69
2023/09/06 01:53:18;;;;;;;4.60;1.60;;;;;;;15.74;100.00;101696.31;5062596;28;20426;-69
2023/09/06 01:55:45;;;;;;;2.70;1.07;;;;;;;15.70;100.00;101691.78;5062855;28;20878;-70
2023/09/06 01:58:13;;;;;;;5.03;1.20;;;;;;;15.65;100.00;101689.97;5062414;28;20810;-70
2023/09/06 02:00:40;;;;;;;2.80;1.30;;;;;;;15.66;100.00;101690.78;5062760;28;20502;-70
2023/09/06 02:03:09;;;;;;;3.83;1.30;;;;;;;15.60;100.00;101687.31;5062508;28;20466;-70
2023/09/06 02:05:36;;;;;;;4.60;2.00;;;;;;;15.60;100.00;101684.59;5062212;28;20529;-70
2023/09/06 02:08:04;;;;;;;2.93;1.13;;;;;;;15.59;100.00;101680.25;5062498;28;20565;-70
2023/09/06 02:10:30;;;;;;;4.53;1.70;;;;;;;15.60;100.00;101671.75;5063085;28;20450;-70
2023/09/06 02:12:57;;;;;;;3.87;1.70;;;;;;;15.62;100.00;101672.22;5062755;28;20857;-70
2023/09/06 02:15:25;;;;;;;3.03;1.20;;;;;;;15.59;100.00;101669.31;5061619;28;20813;-69
2023/09/06 02:17:52;;;;;;;3.20;1.47;;;;;;;15.56;100.00;101675.41;5062345;28;20462;-70
2023/09/06 02:20:19;;;;;;;2.50;1.00;;;;;;;15.53;100.00;101676.81;5061971;28;20891;-70
2023/09/06 02:22:48;;;;;;;3.50;1.60;;;;;;;15.47;100.00;101675.31;5062163;28;20445;-70
2023/09/06 02:25:21;;;;;;;3.83;1.70;;;;;;;15.47;100.00;101671.78;5062842;28;20446;-70
2023/09/06 02:27:48;;;;;;;4.43;1.40;;;;;;;15.45;100.00;101682.19;5061836;28;20469;-70
2023/09/06 02:30:15;;;;;;;3.13;1.60;;;;;;;15.39;100.00;101685.03;5060626;28;20442;-70
2023/09/06 02:32:43;;;;;;;2.97;1.23;;;;;;;15.36;100.00;101679.38;5061348;28;20449;-70
2023/09/06 02:35:10;;;;;;;3.27;1.70;;;;;;;15.38;100.00;101682.63;5060747;28;20481;-70
2023/09/06 02:37:36;;;;;;;3.23;1.20;;;;;;;15.36;100.00;101682.94;5061498;28;20470;-70
2023/09/06 02:40:06;;;;;;;3.70;1.63;;;;;;;15.36;100.00;101677.47;5061513;28;20465;-70
2023/09/06 02:42:34;;;;;;;3.30;1.57;;;;;;;15.32;100.00;101684.66;5062258;28;20453;-70
2023/09/06 02:45:01;;;;;;;3.00;1.20;;;;;;;15.28;100.00;101689.09;5061712;28;20812;-69
2023/09/06 02:47:28;;;;;;;4.30;1.40;;;;;;;15.30;100.00;101686.88;5063086;28;20490;-70
2023/09/06 02:49:56;;;;;;;3.47;1.43;;;;;;;15.30;100.00;101686.06;5063074;28;20936;-70
2023/09/06 02:52:35;;;;;;;2.90;1.30;;;;;;;15.30;100.00;101696.97;5063173;28;20450;-70
2023/09/06 02:55:05;;;;;;;3.20;1.40;;;;;;;15.28;100.00;101691.03;5063184;28;20510;-70
2023/09/06 02:57:32;;;;;;;3.33;1.60;;;;;;;15.29;100.00;101693.44;5063391;28;20462;-70
2023/09/06 02:59:58;;;;;;;3.23;1.53;;;;;;;15.32;100.00;101700.22;5062927;28;20782;-70
2023/09/06 03:02:24;;;;;;;3.60;1.40;;;;;;;15.30;100.00;101705.97;5063641;28;20458;-70
2023/09/06 03:04:55;;;;;;;3.63;1.83;;;;;;;15.25;100.00;101705.28;5063116;28;20453;-70
2023/09/06 03:07:23;;;;;;;3.17;1.27;;;;;;;15.25;100.00;101711.53;5063382;28;20234;-70
2023/09/06 03:09:50;;;;;;;5.10;2.30;;;;;;;15.21;100.00;101710.53;5062780;28;20494;-70
2023/09/06 03:12:17;;;;;;;2.60;1.13;;;;;;;15.14;100.00;101716.41;5062447;28;20438;-70
2023/09/06 03:14:47;;;;;;;3.30;1.70;;;;;;;15.18;100.00;101711.13;5062694;28;20438;-69
2023/09/06 03:17:18;;;;;;;3.63;1.60;;;;;;;15.16;100.00;101709.84;5062531;28;20556;-70
2023/09/06 03:19:46;;;;;;;2.97;1.47;;;;;;;15.16;100.00;101707.91;5062537;28;20426;-70
2023/09/06 03:22:15;;;;;;;3.57;1.53;;;;;;;15.11;100.00;101721.66;5061700;28;20469;-70
2023/09/06 03:24:43;;;;;;;3.90;1.63;;;;;;;15.09;100.00;101718.41;5055807;28;20454;-71
2023/09/06 03:27:15;;;;;;;3.60;1.53;;;;;;;15.03;100.00;101719.66;5060254;28;20516;-70
2023/09/06 03:29:43;;;;;;;3.00;1.20;;;;;;;15.06;100.00;101714.41;5061512;28;20877;-70
2023/09/06 03:32:10;;;;;;;4.97;2.07;;;;;;;15.02;100.00;101726.22;5060641;28;20442;-68
2023/09/06 03:34:40;;;;;;;3.10;1.30;;;;;;;15.02;100.00;101718.03;5058513;28;20480;-69
2023/09/06 03:37:08;;;;;;;2.83;1.23;;;;;;;14.96;100.00;101724.69;5059610;28;20463;-69
2023/09/06 03:39:37;;;;;;;2.57;1.10;;;;;;;14.98;100.00;101728.75;5060261;28;20449;-69
2023/09/06 03:42:08;;;;;;;3.77;1.67;;;;;;;14.98;100.00;101733.41;5059448;28;20807;-69
2023/09/06 03:44:35;;;;;;;3.53;1.20;;;;;;;14.94;100.00;101737.84;5059228;28;20484;-70
2023/09/06 03:47:04;;;;;;;3.40;1.63;;;;;;;14.93;100.00;101741.69;5059484;28;20493;-70
2023/09/06 03:49:32;;;;;;;4.00;1.40;;;;;;;14.88;100.00;101735.19;5057824;28;20539;-70
2023/09/06 03:51:59;;;;;;;2.97;1.00;;;;;;;14.81;100.00;101732.06;5057896;28;20457;-70
2023/09/06 03:54:26;;;;;;;3.57;1.77;;;;;;;14.79;100.00;101737.00;5063024;28;20457;-70
2023/09/06 03:56:53;;;;;;;3.40;1.40;;;;;;;14.74;100.00;101734.38;5063597;28;20469;-70
2023/09/06 03:59:21;;;;;;;3.00;1.20;;;;;;;14.68;100.00;101740.22;5063666;28;20477;-70
2023/09/06 04:01:48;;;;;;;2.70;1.20;;;;;;;14.70;100.00;101744.28;5061801;28;20991;-69
2023/09/06 04:04:15;;;;;;;2.97;1.47;;;;;;;14.72;100.00;101738.50;5060489;28;20465;-69
2023/09/06 04:06:43;;;;;;;3.53;1.87;;;;;;;14.71;100.00;101740.44;5061212;28;20549;-69
2023/09/06 04:09:13;;;;;;;3.37;1.27;;;;;;;14.62;100.00;101740.31;5060769;28;20533;-69
2023/09/06 04:11:40;;;;;;;5.50;1.97;;;;;;;14.64;100.00;101738.06;5060623;28;20439;-69
2023/09/06 04:14:06;;;;;;;3.03;1.30;;;;;;;14.68;100.00;101742.94;5060983;28;20973;-69
2023/09/06 04:16:35;;;;;;;3.13;1.40;;;;;;;14.65;100.00;101747.06;5059950;28;20486;-69
2023/09/06 04:19:02;;;;;;;3.63;1.37;;;;;;;14.68;100.00;101756.56;5059980;28;20856;-69
2023/09/06 04:21:28;;;;;;;4.97;1.60;;;;;;;14.61;100.00;101751.53;5060914;28;20469;-69
2023/09/06 04:23:55;;;;;;;5.37;1.70;;;;;;;14.68;100.00;101751.13;5061213;28;20850;-69
2023/09/06 04:26:21;;;;;;;3.10;1.40;;;;;;;14.64;100.00;101746.25;5060676;28;20983;-69
2023/09/06 04:28:48;;;;;;;3.13;1.60;;;;;;;14.60;100.00;101752.63;5061255;28;20564;-69
2023/09/06 04:31:17;;;;;;;3.67;1.50;;;;;;;14.66;100.00;101753.34;5060706;28;20445;-69
2023/09/06 04:33:45;;;;;;;3.63;1.13;;;;;;;14.65;100.00;101760.69;5059871;28;20451;-69
2023/09/06 04:36:12;;;;;;;3.60;1.33;;;;;;;14.61;100.00;101760.53;5060696;28;20545;-69
2023/09/06 04:38:38;;;;;;;2.97;1.33;;;;;;;14.62;100.00;101764.84;5060565;28;20446;-69
2023/09/06 04:41:05;;;;;;;3.20;1.57;;;;;;;14.62;100.00;101759.41;5060549;28;20503;-69
2023/09/06 04:43:31;;;;;;;3.60;1.70;;;;;;;14.57;100.00;101761.41;5061024;28;20443;-69
2023/09/06 04:45:59;;;;;;;3.70;2.00;;;;;;;14.55;100.00;101769.06;5060638;28;20541;-69
2023/09/06 04:48:26;;;;;;;3.73;1.40;;;;;;;14.49;100.00;101770.28;5060585;28;20482;-69
2023/09/06 04:50:56;;;;;;;3.30;1.50;;;;;;;14.43;100.00;101768.69;5060863;28;20447;-69
2023/09/06 04:53:22;;;;;;;4.03;1.90;;;;;;;14.42;100.00;101765.16;5061256;28;20458;-69
2023/09/06 04:55:52;;;;;;;3.20;1.33;;;;;;;14.42;100.00;101769.81;5060422;28;20486;-69
2023/09/06 04:58:19;;;;;;;2.60;1.13;;;;;;;14.44;100.00;101773.06;5061546;28;20477;-69
2023/09/06 05:00:47;;;;;;;3.67;1.40;;;;;;;14.39;100.00;101772.03;5061487;28;20929;-69
2023/09/06 05:03:17;;;;;;;2.70;1.03;;;;;;;14.49;100.00;101770.28;5060970;28;20447;-69
2023/09/06 05:05:46;;;;;;;2.77;1.17;;;;;;;14.46;100.00;101768.09;5057123;28;20981;-68
2023/09/06 05:08:14;;;;;;;3.03;1.60;;;;;;;14.53;100.00;101776.75;5055515;28;20442;-68
2023/09/06 05:10:41;;;;;;;2.80;1.17;;;;;;;14.59;100.00;101778.28;5055147;28;20945;-68
2023/09/06 05:13:08;;;;;;;2.70;1.17;;;;;;;14.67;100.00;101771.34;5055901;28;20426;-69
2023/09/06 05:15:35;;;;;;;3.30;1.60;;;;;;;14.69;100.00;101780.81;5059184;28;20517;-69
2023/09/06 05:18:02;;;;;;;5.77;1.63;;;;;;;14.68;100.00;101781.13;5059213;28;20446;-69
2023/09/06 05:20:32;;;;;;;2.90;1.40;;;;;;;14.76;100.00;101770.34;5058981;28;20442;-69
2023/09/06 05:23:01;;;;;;;3.20;1.33;;;;;;;14.82;100.00;101771.84;5058673;28;20430;-69
2023/09/06 05:25:29;;;;;;;3.23;1.70;;;;;;;14.92;100.00;101778.22;5058423;28;20445;-69
2023/09/06 05:27:58;;;;;;;3.10;1.60;;;;;;;14.99;100.00;101778.66;5058457;28;20525;-69
2023/09/06 05:30:25;;;;;;;3.37;1.80;;;;;;;15.00;100.00;101770.16;5057858;28;21005;-69
2023/09/06 05:32:52;;;;;;;4.07;1.77;;;;;;;15.08;100.00;101776.84;5057886;28;20545;-69
2023/09/06 05:35:18;;;;;;;4.43;1.90;;;;;;;15.06;100.00;101774.44;5054634;28;20524;-69
2023/09/06 05:37:45;;;;;;;3.53;1.80;;;;;;;15.14;100.00;101781.91;5054916;28;20521;-70
2023/09/06 05:40:13;;;;;;;4.97;1.77;;;;;;;15.24;100.00;101783.63;5054942;28;20442;-69
2023/09/06 05:42:42;;;;;;;4.20;1.93;;;;;;;15.28;100.00;101781.94;5054834;28;20438;-69
2023/09/06 05:45:11;;;;;;;3.20;1.33;;;;;;;15.37;100.00;101791.03;5054528;28;20525;-69
2023/09/06 05:47:38;;;;;;;4.53;2.07;;;;;;;15.44;100.00;101778.88;5054650;28;20453;-69
2023/09/06 05:50:06;;;;;;;3.50;1.50;;;;;;;15.52;100.00;101781.69;5054630;28;20488;-69
2023/09/06 05:52:33;;;;;;;3.20;1.50;;;;;;;15.62;100.00;101786.94;5069170;22;20551;-72
2023/09/06 05:54:59;;;;;;;3.17;1.73;;;;;;;15.72;100.00;101787.91;5054366;28;20529;-73
2023/09/06 05:57:26;;;;;;;4.07;1.93;;;;;;;15.82;100.00;101790.41;5054796;28;20508;-71
2023/09/06 05:59:54;;;;;;;4.00;2.10;;;;;;;15.91;100.00;101790.47;5054529;28;20520;-72
2023/09/06 06:05:14;;;;;;;4.90;1.90;;;;;;;16.11;100.00;101793.56;5051042;28;20531;-70
2023/09/06 06:07:41;;;;;;;5.57;1.93;;;;;;;16.20;100.00;101790.06;5054315;28;20465;-71
2023/09/06 06:10:10;;;;;;;3.30;1.60;;;;;;;16.28;100.00;101798.34;5054278;28;20514;-67
2023/09/06 06:12:37;;;;;;;5.40;2.87;;;;;;;16.37;100.00;101798.41;5053914;28;20438;-67
2023/09/06 06:15:08;;;;;;;3.07;1.43;;;;;;;16.46;100.00;101799.28;5053705;28;20439;-67
2023/09/06 06:17:35;;;;;;;3.47;1.37;;;;;;;16.56;100.00;101809.19;5054159;28;20464;-72
2023/09/06 06:20:01;;;;;;;4.30;2.00;;;;;;;16.64;100.00;101805.69;5054127;28;20435;-73
2023/09/06 06:22:28;;;;;;;5.47;2.53;;;;;;;16.74;100.00;101807.41;5053747;28;20824;-71
2023/09/06 06:24:55;;;;;;;4.23;1.73;;;;;;;16.83;100.00;101800.88;5054093;28;20477;-71
2023/09/06 06:27:21;;;;;;;8.00;2.33;;;;;;;16.92;100.00;101800.09;5053727;28;21056;-70
2023/09/06 06:29:48;;;;;;;3.87;2.17;;;;;;;17.01;100.00;101803.69;5053895;28;20532;-71
2023/09/06 06:32:16;;;;;;;4.23;2.03;;;;;;;17.14;100.00;101802.78;5053594;28;20929;-73
2023/09/06 06:34:43;;;;;;;4.33;2.20;;;;;;;17.32;100.00;101809.94;5053954;28;20440;-72
2023/09/06 06:37:10;;;;;;;5.23;2.67;;;;;;;17.47;100.00;101810.63;5053832;28;20462;-73
2023/09/06 06:39:37;;;;;;;5.90;2.63;;;;;;;17.61;100.00;101806.63;5053783;28;20462;-69
2023/09/06 06:42:03;;;;;;;5.60;3.20;;;;;;;17.74;100.00;101815.91;5053793;28;20517;-71
2023/09/06 06:44:30;;;;;;;6.17;2.97;;;;;;;17.84;100.00;101820.25;5053761;28;20521;-72
2023/09/06 06:46:57;;;;;;;4.83;2.43;;;;;;;17.94;100.00;101817.22;5053363;28;20469;-70
2023/09/06 06:49:25;;;;;;;6.70;3.57;;;;;;;18.04;100.00;101824.34;5053552;28;20576;-72
2023/09/06 06:51:51;;;;;;;4.33;2.10;;;;;;;18.12;100.00;101816.13;5053395;28;20450;-70
2023/09/06 06:54:19;;;;;;;6.07;2.50;;;;;;;18.26;100.00;101821.44;5053639;28;20438;-70
2023/09/06 06:56:46;;;;;;;6.30;2.83;;;;;;;18.39;100.00;101812.25;5053156;28;20470;-70
2023/09/06 06:59:14;;;;;;;7.70;3.57;;;;;;;18.56;99.51;101818.84;5053533;28;20434;-71
2023/09/06 07:01:40;;;;;;;4.47;2.60;;;;;;;18.80;96.30;101816.41;5053164;28;20477;-73
2023/09/06 07:04:07;;;;;;;3.77;1.77;;;;;;;18.95;94.95;101815.09;5053853;28;20469;-71
2023/09/06 07:06:35;;;;;;;5.93;3.13;;;;;;;19.05;94.15;101824.91;5053363;28;20462;-70
2023/09/06 07:09:03;;;;;;;5.93;2.77;;;;;;;19.16;93.99;101823.41;5053058;28;21019;-70
2023/09/06 07:11:30;;;;;;;4.43;2.57;;;;;;;19.23;94.75;101826.47;5053396;28;20446;-71
2023/09/06 07:13:56;;;;;;;5.77;2.83;;;;;;;19.28;95.32;101831.75;5053378;28;20470;-72
2023/09/06 07:16:23;;;;;;;5.73;3.13;;;;;;;19.32;94.19;101823.69;5053225;28;20474;-72
2023/09/06 07:18:51;;;;;;;3.97;2.37;;;;;;;19.41;93.37;101833.50;5053295;28;20876;-72
2023/09/06 07:21:19;;;;;;;4.67;2.10;;;;;;;19.51;92.30;101828.75;5053714;28;20532;-71
2023/09/06 07:23:47;;;;;;;4.30;2.27;;;;;;;19.64;90.81;101830.50;5053230;28;20442;-70
2023/09/06 07:26:14;;;;;;;4.30;2.27;;;;;;;19.79;90.39;101832.69;5053867;28;20473;-70
2023/09/06 07:28:42;;;;;;;4.43;1.90;;;;;;;19.89;90.03;101834.22;5057296;28;20442;-70
2023/09/06 07:31:09;;;;;;;7.40;3.03;;;;;;;20.09;86.87;101830.69;5057269;28;20481;-70
2023/09/06 07:33:36;;;;;;;5.97;2.70;;;;;;;20.30;85.61;101825.19;5057293;28;20441;-70
2023/09/06 07:36:04;;;;;;;5.20;3.03;;;;;;;20.49;84.60;101837.66;5056884;28;20484;-70
2023/09/06 07:38:31;;;;;;;11.10;3.60;;;;;;;20.60;84.15;101844.38;5057218;28;20438;-70
2023/09/06 07:41:00;;;;;;;7.03;3.17;;;;;;;20.71;84.84;101840.03;5057116;28;20445;-70
2023/09/06 07:43:28;;;;;;;5.00;2.30;;;;;;;20.78;84.53;101842.25;5057049;28;20530;-70
2023/09/06 07:45:56;;;;;;;4.13;2.20;;;;;;;20.74;83.24;101836.63;5056954;28;20473;-70
2023/09/06 07:48:23;;;;;;;5.37;2.23;;;;;;;20.77;84.06;101843.41;5056718;28;20934;-70
2023/09/06 07:50:50;;;;;;;4.20;2.23;;;;;;;20.75;83.74;101834.66;5056681;28;20481;-70
2023/09/06 07:53:16;;;;;;;4.40;2.07;;;;;;;20.78;83.83;101848.56;5056910;28;20462;-70
2023/09/06 07:55:44;;;;;;;6.10;2.60;;;;;;;20.86;84.30;101847.69;5056822;28;20503;-70
2023/09/06 07:58:12;;;;;;;6.80;2.90;;;;;;;20.97;84.28;101850.81;5056497;28;20984;-70
2023/09/06 08:00:39;;;;;;;4.60;2.37;;;;;;;21.07;83.85;101847.63;5056739;28;20521;-70
2023/09/06 08:03:06;;;;;;;4.33;2.50;;;;;;;21.17;83.52;101854.63;5056466;28;20441;-68
2023/09/06 08:05:35;;;;;;;8.70;2.90;;;;;;;21.23;82.26;101847.75;5056656;28;20515;-68
2023/09/06 08:08:01;;;;;;;3.80;2.03;;;;;;;21.38;81.33;101862.84;5056665;28;20442;-69
2023/09/06 08:10:28;;;;;;;4.10;2.20;;;;;;;21.44;81.25;101853.22;5056227;28;21072;-70
2023/09/06 08:12:56;;;;;;;4.07;1.93;;;;;;;21.52;81.62;101863.31;5056525;28;20479;-69
2023/09/06 08:15:24;;;;;;;3.40;1.90;;;;;;;21.56;81.47;101861.50;5056380;28;20525;-70
2023/09/06 08:17:51;;;;;;;3.53;1.53;;;;;;;21.73;80.21;101867.91;5056029;28;20948;-70
2023/09/06 08:20:18;;;;;;;4.13;1.77;;;;;;;21.83;79.55;101870.22;5056292;28;20449;-70
2023/09/06 08:22:46;;;;;;;4.53;2.43;;;;;;;21.91;79.88;101863.75;5056269;28;20532;-70
2023/09/06 08:25:13;;;;;;;3.60;1.77;;;;;;;22.03;78.50;101868.44;5056313;28;20438;-70
2023/09/06 08:27:38;;;;;;;5.10;2.73;;;;;;;22.13;76.13;101871.59;5055867;28;20902;-69
2023/09/06 08:30:07;;;;;;;4.57;2.20;;;;;;;22.23;76.00;101862.00;5055883;28;20557;-69
2023/09/06 08:32:35;;;;;;;4.40;2.60;;;;;;;22.35;76.40;101861.16;5056154;28;20257;-69
2023/09/06 08:35:01;;;;;;;3.83;2.27;;;;;;;22.40;76.09;101871.94;5056076;28;20448;-69
2023/09/06 08:37:28;;;;;;;4.10;2.40;;;;;;;22.49;75.75;101869.88;5055877;28;20533;-70
2023/09/06 08:39:54;;;;;;;4.43;2.70;;;;;;;22.52;75.23;101868.34;5055501;28;20466;-70
2023/09/06 08:42:23;;;;;;;4.00;2.53;;;;;;;22.58;74.85;101866.94;5055963;28;20525;-70
2023/09/06 08:44:50;;;;;;;7.20;3.20;;;;;;;22.65;73.68;101875.41;5056024;28;20438;-70
2023/09/06 08:47:19;;;;;;;5.07;2.83;;;;;;;22.74;73.83;101867.78;5056084;28;20462;-70
2023/09/06 08:49:49;;;;;;;4.60;2.47;;;;;;;22.82;73.39;101864.06;5055765;28;20498;-70
2023/09/06 08:52:15;;;;;;;4.70;2.53;;;;;;;22.85;72.52;101868.91;5055429;28;20893;-70
2023/09/06 08:54:44;;;;;;;5.30;2.50;;;;;;;22.93;71.38;101869.91;5055741;28;20473;-70
2023/09/06 08:57:13;;;;;;;4.83;2.43;;;;;;;23.03;70.54;101874.13;5055696;28;20541;-70
2023/09/06 08:59:40;;;;;;;5.47;2.50;;;;;;;23.12;69.76;101872.00;5055467;28;20944;-70
2023/09/06 09:02:10;;;;;;;4.87;2.20;;;;;;;23.15;68.16;101874.84;5055669;28;20439;-70
2023/09/06 09:04:41;;;;;;;5.80;3.07;;;;;;;23.24;68.13;101868.31;5055639;28;20470;-70
2023/09/06 09:07:10;;;;;;;3.90;2.27;;;;;;;23.33;68.12;101869.78;5055897;28;20493;-70
2023/09/06 09:09:56;;;;;;;4.43;2.43;;;;;;;23.49;68.32;101868.97;5055144;28;20926;-70
2023/09/06 09:12:24;;;;;;;3.70;2.23;;;;;;;23.55;67.74;101870.28;5055524;28;20430;-70
2023/09/06 09:14:51;;;;;;;6.20;2.37;;;;;;;23.58;67.81;101864.03;5055088;28;20926;-70
2023/09/06 09:17:21;;;;;;;10.50;2.67;;;;;;;23.62;68.04;101867.69;5055331;28;20462;-69
2023/09/06 09:19:49;;;;;;;4.10;2.20;;;;;;;23.68;67.40;101869.06;5055332;28;20457;-69
2023/09/06 09:22:21;;;;;;;3.20;1.90;;;;;;;23.76;67.36;101867.25;5055320;28;20815;-69
2023/09/06 09:24:48;;;;;;;3.77;2.30;;;;;;;23.87;67.04;101871.09;5055282;28;20511;-70
2023/09/06 09:27:17;;;;;;;4.53;2.20;;;;;;;24.01;65.72;101873.38;5055084;28;20494;-70
2023/09/06 09:29:44;;;;;;;4.80;2.37;;;;;;;24.06;65.09;101878.63;5055065;28;20470;-70
2023/09/06 09:32:12;;;;;;;3.63;1.97;;;;;;;24.09;64.72;101875.16;5055305;28;20434;-70
2023/09/06 09:34:41;;;;;;;3.50;2.07;;;;;;;24.15;63.34;101870.91;5055004;28;20443;-70
2023/09/06 09:37:09;;;;;;;3.93;1.87;;;;;;;24.26;63.56;101877.50;5054906;28;20516;-70
2023/09/06 09:39:37;;;;;;;3.87;2.07;;;;;;;24.30;63.79;101878.34;5054950;28;20525;-70
2023/09/06 09:42:05;;;;;;;3.67;1.97;;;;;;;24.35;62.45;101880.06;5054900;28;20846;-70
2023/09/06 09:44:32;;;;;;;4.63;2.47;;;;;;;24.42;62.02;101872.72;5054846;28;20521;-70
2023/09/06 09:47:08;;;;;;;5.40;2.30;;;;;;;24.52;62.82;101878.84;5054407;28;20965;-70
2023/09/06 09:49:36;;;;;;;4.17;2.10;;;;;;;24.66;61.90;101874.41;5053993;28;20426;-70
2023/09/06 09:52:03;;;;;;;4.60;2.33;;;;;;;24.70;59.82;101879.19;5054159;28;20450;-70
2023/09/06 09:54:34;;;;;;;2.87;1.53;;;;;;;24.81;60.37;101872.69;5054338;28;20449;-70
2023/09/06 09:57:05;;;;;;;3.63;1.40;;;;;;;24.88;59.23;101872.84;5054274;28;20802;-69
2023/09/06 09:59:33;;;;;;;4.70;2.00;;;;;;;24.90;57.34;101876.03;5054603;28;20423;-69
2023/09/06 10:02:00;;;;;;;3.50;1.80;;;;;;;25.00;58.13;101879.38;5054511;28;20441;-70
2023/09/06 10:04:28;;;;;;;3.93;1.70;;;;;;;25.05;58.29;101876.28;5054097;28;20485;-69
2023/09/06 10:06:56;;;;;;;3.97;2.27;;;;;;;25.11;58.60;101886.75;5054320;28;20542;-70
2023/09/06 10:09:23;;;;;;;3.50;1.60;;;;;;;25.16;57.63;101877.31;5054051;28;20438;-70
2023/09/06 10:11:51;;;;;;;3.23;1.73;;;;;;;25.29;55.96;101886.25;5054269;28;20486;-70
2023/09/06 10:14:22;;;;;;;4.17;1.90;;;;;;;25.35;56.48;101882.78;5054097;28;20449;-70
2023/09/06 10:16:50;;;;;;;3.80;1.90;;;;;;;25.44;56.19;101881.75;5054264;28;20462;-70
2023/09/06 10:19:16;;;;;;;3.40;1.67;;;;;;;25.65;51.63;101887.66;5054235;28;20434;-70
2023/09/06 10:21:44;;;;;;;3.13;1.63;;;;;;;25.96;51.18;101886.56;5054213;28;20462;-70
2023/09/06 10:24:17;;;;;;;2.97;1.70;;;;;;;26.07;50.95;101886.69;5054304;28;20529;-69
2023/09/06 10:26:47;;;;;;;4.30;1.97;;;;;;;26.04;52.69;101882.72;5054027;28;20450;-69
2023/09/06 10:29:23;;;;;;;5.53;2.70;;;;;;;26.07;52.59;101887.50;5054146;28;20533;-70
2023/09/06 10:31:52;;;;;;;3.67;1.73;;;;;;;26.16;52.16;101890.81;5053734;28;20472;-70
2023/09/06 10:34:18;;;;;;;4.37;1.77;;;;;;;26.14;50.60;101884.81;5053791;28;20451;-72
2023/09/06 10:36:53;;;;;;;5.60;2.10;;;;;;;26.21;51.68;101886.91;5053582;28;21013;-70
2023/09/06 10:39:22;;;;;;;3.60;1.93;;;;;;;26.33;50.66;101889.44;5053624;28;20448;-70
2023/09/06 10:42:29;;;;;;;3.17;1.40;;;;;;;26.56;50.27;101885.75;5053625;28;20466;-70
2023/09/06 10:45:19;;;;;;;3.53;1.83;;;;;;;26.73;49.98;101885.16;5053811;28;20438;-71
2023/09/06 10:47:46;;;;;;;3.70;2.07;;;;;;;26.97;48.31;101883.06;5049056;28;20453;-70
2023/09/06 10:50:20;;;;;;;5.00;2.03;;;;;;;27.06;47.89;101880.75;5053347;28;21007;-71
2023/09/06 10:52:51;;;;;;;3.40;1.60;;;;;;;27.14;49.34;101877.69;5053327;28;20445;-70
2023/09/06 10:55:20;;;;;;;4.13;2.37;;;;;;;27.27;47.72;101881.00;5053621;28;20426;-70
2023/09/06 10:57:48;;;;;;;3.40;1.93;;;;;;;27.39;48.38;101874.31;5053515;28;20444;-70
2023/09/06 11:00:20;;;;;;;3.20;1.60;;;;;;;27.43;48.39;101875.16;5053243;28;20849;-70
2023/09/06 11:03:17;;;;;;;3.40;1.80;;;;;;;27.55;47.63;101876.84;5053250;28;20423;-70
2023/09/06 11:05:51;;;;;;;4.93;2.30;;;;;;;27.62;46.54;101879.66;5053324;28;20545;-70
2023/09/06 11:08:30;;;;;;;4.70;2.17;;;;;;;27.71;46.98;101868.97;5053547;28;20422;-70
2023/09/06 11:11:02;;;;;;;3.83;2.07;;;;;;;27.86;47.43;101861.56;5053366;28;21016;-70
2023/09/06 11:13:32;;;;;;;5.03;1.97;;;;;;;28.10;47.08;101865.66;5054118;28;20521;-70
2023/09/06 11:16:01;;;;;;;2.70;1.23;;;;;;;28.64;42.79;101872.25;5053300;28;20901;-70
2023/09/06 11:18:30;;;;;;;4.73;1.73;;;;;;;29.22;42.80;101865.63;5053315;28;20533;-70
2023/09/06 11:20:59;;;;;;;4.33;1.90;;;;;;;30.02;43.12;101858.75;5053691;28;20496;-70
2023/09/06 11:23:26;;;;;;;3.80;1.87;;;;;;;30.84;41.44;101858.41;5053330;28;20443;-70
2023/09/06 11:25:58;;;;;;;3.07;1.60;;;;;;;31.29;38.80;101864.88;5052864;28;20901;-70